Date,TemperatureHighF,TemperatureAvgF,TemperatureLowF,DewpointHighF,DewpointAvgF,DewpointLowF,HumidityHigh,HumidityAvg,HumidityLow,PressureMaxIn,PressureMinIn,WindSpeedMaxMPH,WindSpeedAvgMPH,GustSpeedMaxMPH,PrecipitationSumIn
2013-3-13,39,33,25,31,24,16,89,68,53,29.90,29.80,12,5,24,0.04
2013-3-14,32,25,19,18,12,8,83,59,36,30.01,29.89,15,8,30,0.00
2013-3-15,38,31,24,31,24,14,89,74,57,30.01,29.68,13,4,24,0.00
2013-3-16,31,25,18,21,18,14,88,73,64,29.95,29.81,8,3,13,0.00
2013-3-17,30,24,17,22,17,11,91,75,54,30.31,29.95,9,3,15,0.01
2013-3-18,34,25,15,27,18,12,91,77,46,30.32,29.77,18,8,30,0.01
2013-3-19,38,32,26,35,27,19,94,81,58,29.80,29.66,14,5,27,0.14
2013-3-20,35,28,24,22,20,15,84,71,44,29.80,29.75,9,5,24,0.01
2013-3-21,31,26,20,25,18,13,90,73,49,29.80,29.68,7,3,16,0.00
2013-3-22,31,28,25,26,24,21,92,83,73,29.88,29.69,9,5,21,0.02
2013-3-23,37,32,29,26,24,21,84,72,57,29.98,29.86,10,5,19,0.01
2013-3-24,38,32,26,28,24,23,88,73,56,29.97,29.72,9,3,19,0.00
2013-3-25,41,34,31,30,26,24,83,73,58,29.72,29.57,11,4,15,0.00
2013-3-26,45,36,30,33,29,25,88,74,54,29.90,29.67,10,2,16,0.00
2013-3-27,46,37,32,36,30,26,94,77,55,30.02,29.87,9,4,21,0.08
2013-3-28,45,38,33,35,32,28,93,80,56,30.16,30.00,6,3,15,0.05
2013-3-29,50,41,36,36,32,27,84,70,48,30.17,30.09,11,3,18,0.00
2013-3-30,52,40,30,31,27,24,81,62,33,30.17,30.05,7,2,21,0.00
2013-3-31,55,42,32,42,32,-100,93,71,42,30.05,29.61,14,5,24,0.15
2013-4-1,44,36,27,42,28,16,96,75,44,29.91,29.54,10,5,24,0.14
2013-4-2,33,28,23,26,20,17,86,73,57,30.06,29.90,12,5,23,0.03
2013-4-3,37,31,26,22,17,13,77,58,39,30.33,30.06,11,6,21,0.00
2013-4-4,58,38,24,27,21,17,79,54,23,30.32,29.90,9,2,16,0.00
2013-4-5,45,36,28,30,25,19,86,65,52,30.11,29.85,11,4,22,0.00
2013-4-6,45,35,22,23,20,14,86,56,30,30.31,30.05,10,3,20,0.00
2013-4-7,72,54,42,47,32,21,70,46,34,30.06,29.70,17,8,34,0.00
2013-4-8,58,48,39,45,38,33,85,68,51,30.11,29.76,8,3,13,0.01
2013-4-9,67,53,44,52,44,41,95,75,52,30.09,29.74,10,4,25,0.71
2013-4-10,47,43,39,46,42,37,97,95,93,30.03,29.83,10,4,15,1.64
2013-4-11,40,35,32,38,32,27,95,88,70,30.13,29.95,11,6,16,0.30
2013-4-12,47,39,34,43,36,32,96,90,79,29.96,29.56,16,8,27,0.41
2013-4-13,46,42,40,38,35,32,83,75,61,29.91,29.76,7,3,17,0.01
2013-4-14,46,40,32,33,30,26,88,69,52,30.18,29.91,8,3,15,0.00
2013-4-15,71,52,32,51,39,28,89,64,45,30.17,30.01,14,8,26,0.00
2013-4-16,66,57,45,59,50,34,95,77,65,30.22,29.95,15,7,24,0.11
2013-4-17,54,45,35,38,34,30,89,67,44,30.33,30.22,8,2,14,0.08
2013-4-18,73,58,39,58,48,34,83,70,51,30.24,29.75,24,11,45,0.06
2013-4-19,74,60,43,61,51,32,87,73,62,29.77,29.38,18,10,35,0.06
2013-4-20,43,39,32,32,27,21,74,60,47,30.38,29.74,13,6,28,0.06
2013-4-21,43,35,27,28,23,19,84,63,42,30.66,30.38,7,2,13,0.00
2013-4-22,58,43,26,33,27,21,88,57,31,30.61,30.36,13,5,23,0.00
2013-4-23,61,49,38,39,33,27,67,54,41,30.36,29.98,15,8,23,0.00
2013-4-24,68,54,40,54,44,34,88,70,55,29.98,29.61,13,8,27,0.07
2013-4-25,57,45,35,39,32,28,86,64,36,30.29,29.96,9,3,17,0.05
2013-4-26,53,44,34,39,34,30,95,71,41,30.45,30.29,8,2,18,0.03
2013-4-27,69,50,31,44,37,29,94,65,33,30.43,30.22,6,2,10,0.00
2013-4-28,73,58,42,48,40,-100,87,57,27,30.23,30.03,14,6,25,0.12
2013-4-29,61,56,51,53,49,44,90,78,69,30.07,30.00,16,8,24,0.18
2013-4-30,70,61,55,56,53,51,90,74,55,30.23,30.06,13,7,20,0.04
2013-5-1,76,64,55,52,43,36,82,52,24,30.35,30.22,15,5,20,0.01
2013-5-2,77,63,49,49,42,36,71,49,29,30.41,30.26,11,4,16,0.00
2013-5-3,75,62,48,50,46,42,86,57,35,30.30,30.21,11,4,16,0.00
2013-5-4,74,61,45,49,43,39,80,54,34,30.28,30.14,10,4,17,0.00
2013-5-5,77,60,42,50,45,40,94,62,31,30.20,30.06,10,2,17,0.00
2013-5-6,76,60,45,47,42,34,88,53,25,30.16,30.00,9,4,15,0.00
2013-5-7,79,64,49,57,52,46,92,68,36,30.11,29.99,6,2,11,0.00
2013-5-8,68,61,51,62,56,49,97,86,71,30.05,29.90,8,2,18,0.09
2013-5-9,71,60,52,61,56,51,97,87,66,29.94,29.86,6,2,13,0.11
2013-5-10,73,60,49,62,54,-100,98,86,60,29.94,29.72,12,3,24,0.30
2013-5-11,61,57,48,59,52,44,97,84,64,29.75,29.64,7,3,15,0.51
2013-5-12,52,46,38,45,35,-100,94,69,41,29.88,29.67,12,5,25,0.03
2013-5-13,50,42,36,33,31,28,79,65,47,30.09,29.88,8,4,22,0.03
2013-5-14,58,45,32,37,33,30,94,66,35,30.14,29.97,6,1,11,0.00
2013-5-15,82,59,40,61,46,32,86,64,42,29.97,29.50,15,6,31,0.10
2013-5-16,76,58,50,48,24,-100,83,53,27,29.98,29.70,11,3,24,0.07
2013-5-17,65,52,38,47,36,-100,97,69,37,30.20,29.98,4,1,9,0.00
2013-5-18,71,56,38,52,46,37,97,72,45,30.26,30.14,7,2,12,0.00
2013-5-19,76,65,57,63,57,51,85,76,60,30.15,30.00,15,7,22,0.00
2013-5-20,85,72,57,70,62,56,96,73,52,30.03,29.84,9,3,13,0.00
2013-5-21,83,71,61,73,66,58,96,83,65,29.90,29.73,8,2,15,0.91
2013-5-22,89,73,61,71,65,58,99,80,47,29.79,29.64,9,2,17,0.74
2013-5-23,76,68,48,65,61,46,94,79,61,29.83,29.70,7,3,13,0.49
2013-5-24,50,43,39,46,40,37,96,89,69,30.14,29.83,8,4,18,0.50
2013-5-25,57,49,40,40,38,36,85,66,45,30.17,30.09,10,4,20,0.02
2013-5-26,62,52,43,41,38,34,83,59,37,30.17,30.07,9,3,19,0.00
2013-5-27,70,57,45,45,39,36,76,55,32,30.25,30.12,5,2,10,0.00
2013-5-28,62,55,49,57,50,41,96,84,64,30.15,29.94,11,5,19,0.84
2013-5-29,82,70,58,70,63,57,98,80,55,30.00,29.90,8,3,15,1.65
2013-5-30,89,75,60,70,65,59,98,74,45,30.10,30.00,5,1,12,0.15
2013-5-31,91,77,63,70,66,62,97,71,42,30.07,29.91,6,1,11,0.00
2013-6-1,90,77,64,70,67,62,95,74,50,29.95,29.76,7,2,18,0.00
2013-6-2,80,71,59,68,63,-100,94,79,53,29.83,29.68,8,3,21,0.22
2013-6-3,63,56,50,54,47,42,88,72,49,29.99,29.84,6,2,13,0.05
2013-6-4,66,56,46,46,43,33,92,64,31,30.14,29.99,8,2,15,0.00
2013-6-5,69,57,48,54,46,40,86,67,46,30.20,30.07,6,2,12,0.00
2013-6-6,58,55,51,56,52,46,97,90,77,30.08,29.84,9,3,13,2.05
2013-6-7,64,60,56,62,59,55,98,96,92,29.84,29.77,5,2,7,0.51
2013-6-8,64,59,56,61,58,56,99,94,82,30.02,29.77,3,1,8,0.10
2013-6-9,77,68,58,61,58,54,91,70,53,30.18,30.11,4,1,9,0.02
2013-6-10,64,64,64,63,63,63,96,96,96,29.75,29.72,6,4,9,0.30
2013-6-11,67,64,58,65,61,55,99,92,79,29.80,29.62,7,3,19,0.63
2013-6-12,75,64,53,60,56,52,96,77,51,29.92,29.78,4,1,8,0.01
2013-6-13,64,60,56,60,58,55,96,92,82,29.78,29.50,10,4,19,1.98
2013-6-14,73,63,53,61,57,52,98,82,58,29.93,29.75,7,2,14,0.01
2013-6-15,74,65,54,59,53,46,96,69,37,30.03,29.93,6,2,14,0.01
2013-6-16,75,66,59,67,60,54,94,82,72,29.93,29.68,6,2,15,0.19
2013-6-17,79,68,60,67,62,59,97,83,51,29.91,29.80,7,2,17,0.14
2013-6-18,67,61,53,59,54,48,98,78,53,30.01,29.88,7,2,14,0.03
2013-6-19,66,57,46,51,47,41,97,72,42,30.18,30.00,6,2,12,0.00
2013-6-20,76,57,42,57,48,41,98,77,47,30.24,30.18,6,1,13,0.00
2013-6-22,87,82,73,75,70,65,93,67,49,30.12,29.99,6,2,12,0.00
2013-6-23,88,76,67,77,70,66,96,84,63,30.06,29.99,8,2,15,0.58
2013-6-24,89,78,66,74,68,64,97,75,51,30.02,29.92,6,2,16,0.55
2013-6-25,85,76,66,73,67,64,94,77,59,29.94,29.77,8,2,16,0.00
2013-6-26,85,75,68,73,68,64,95,79,59,29.81,29.76,5,2,11,0.01
2013-6-27,80,71,63,73,68,62,98,89,69,29.80,29.60,6,1,10,0.07
2013-6-28,67,65,61,65,64,60,98,96,92,29.60,29.49,4,1,9,0.65
2013-6-29,76,70,61,68,64,60,98,83,64,29.68,29.50,5,1,10,0.09
2013-6-30,78,71,62,69,65,61,98,83,68,29.91,29.67,5,1,10,0.01
2013-7-1,68,66,63,66,64,62,97,94,87,30.01,29.90,3,1,10,0.37
2013-7-2,81,70,61,75,67,60,98,91,80,30.09,30.00,5,2,10,0.08
2013-7-3,86,75,65,77,70,64,98,84,69,30.14,30.07,11,2,21,0.09
2013-7-4,88,77,69,75,71,68,97,85,60,30.16,30.09,4,1,11,0.02
2013-7-5,87,76,68,76,71,67,99,88,66,30.13,30.04,7,1,16,0.14
2013-7-6,88,80,72,74,70,65,96,73,52,30.14,30.01,3,1,8,0.06
2013-7-7,85,78,70,75,71,66,97,81,61,30.03,29.91,6,2,13,0.12
2013-7-8,82,72,69,74,67,-100,96,86,71,30.04,29.96,6,1,11,0.13
2013-7-9,84,76,67,75,72,66,97,88,70,30.04,29.91,9,1,16,0.14
2013-7-10,88,77,70,76,68,-100,97,78,62,29.91,29.71,9,3,18,0.16
2013-7-11,76,70,61,66,62,58,96,76,61,30.01,29.80,6,2,12,0.09
2013-7-12,76,66,59,66,62,58,98,86,64,30.16,30.01,6,1,11,0.00
2013-7-13,78,70,60,72,66,59,98,88,76,30.24,30.14,7,2,10,0.00
2013-7-14,91,77,64,77,70,63,99,82,56,30.30,30.22,4,1,7,0.00
2013-7-15,88,79,70,76,72,66,97,81,54,30.29,30.21,6,1,11,0.00
2013-7-16,90,78,66,74,70,64,96,76,54,30.27,30.19,7,1,10,0.00
2013-7-17,93,79,67,82,73,66,98,83,57,30.22,30.06,5,1,12,0.57
2013-7-18,90,80,73,79,75,70,94,85,69,30.08,29.94,7,2,14,0.34
2013-7-19,93,86,71,77,74,67,97,68,55,29.94,29.71,15,4,28,0.10
2013-7-20,78,71,67,70,64,-100,97,82,70,29.85,29.71,7,1,20,0.78
2013-7-21,75,70,61,65,62,59,98,77,63,30.00,29.91,6,2,9,0.01
2013-7-22,79,68,58,71,64,57,98,87,68,29.99,29.78,4,1,8,0.05
2013-7-23,84,73,67,71,68,59,98,84,55,29.78,29.60,6,1,13,0.33
2013-7-24,68,62,51,61,54,50,96,77,62,30.03,29.67,8,3,17,0.07
2013-7-25,72,60,47,59,53,46,98,82,58,30.11,30.03,6,1,14,0.00
2013-7-26,75,63,50,64,56,49,98,82,59,30.11,30.01,4,1,10,0.00
2013-7-27,81,68,54,71,64,53,98,87,66,30.01,29.84,8,3,21,0.37
2013-7-28,75,68,60,68,65,59,97,89,74,29.97,29.82,7,2,12,0.22
2013-7-29,72,63,56,62,58,55,98,86,59,30.11,29.97,5,1,14,0.04
2013-7-30,75,66,58,64,59,56,97,81,61,30.19,30.11,5,1,10,0.01
2013-7-31,80,68,55,66,60,54,98,79,51,30.15,29.93,5,2,10,0.00
2013-8-1,80,68,62,70,64,61,96,86,67,29.93,29.76,9,2,22,0.26
2013-8-2,75,67,60,66,62,59,97,85,64,29.89,29.82,7,1,12,0.05
2013-8-3,76,68,62,64,60,55,96,77,49,29.90,29.80,7,2,13,0.17
2013-8-4,71,64,57,61,56,52,92,77,58,30.03,29.90,11,3,18,0.00
2013-8-5,73,62,51,60,54,50,97,79,52,30.10,30.01,7,1,11,0.00
2013-8-6,78,65,52,64,57,51,98,78,51,30.05,29.99,6,2,11,0.00
2013-8-7,78,71,64,69,65,60,92,82,72,30.01,29.89,12,5,19,0.00
2013-8-8,85,72,66,74,68,64,97,88,65,29.95,29.90,5,2,11,0.35
2013-8-9,77,70,65,71,67,61,98,93,79,29.91,29.83,4,1,9,0.38
2013-8-10,72,66,55,62,58,53,96,77,56,30.08,29.90,7,2,16,0.01
2013-8-11,75,64,50,61,56,49,98,80,52,30.12,30.03,5,1,11,0.00
2013-8-12,79,68,60,68,62,58,94,82,57,30.04,29.85,3,0,8,0.00
2013-8-13,74,66,59,68,60,-100,97,82,64,29.85,29.72,6,2,18,0.37
2013-8-14,68,58,54,56,49,-100,94,76,56,30.05,29.82,8,3,17,0.04
2013-8-15,75,57,50,58,41,-100,94,70,47,30.12,30.05,5,1,12,0.01
2013-8-16,76,63,51,61,51,-100,96,73,48,30.19,30.10,3,1,8,0.00
2013-8-17,80,65,52,66,58,51,98,81,51,30.29,30.19,4,1,7,0.00
2013-8-18,79,66,57,67,59,-100,98,83,55,30.24,30.10,4,1,8,0.00
2013-8-19,81,66,58,67,52,-100,97,78,50,30.10,30.01,4,1,8,0.00
2013-8-20,84,70,58,67,60,-100,98,78,51,30.12,30.04,5,1,9,0.00
2013-8-21,86,71,57,72,64,56,98,79,51,30.15,30.01,4,1,9,0.01
2013-8-22,86,72,60,73,67,59,98,87,59,30.02,29.86,6,1,12,0.77
2013-8-23,72,64,54,64,59,52,99,84,63,30.19,29.95,6,2,11,0.01
2013-8-24,75,62,50,60,55,49,99,80,54,30.35,30.19,5,1,8,0.01
2013-8-25,83,65,49,65,56,-100,99,77,44,30.34,30.12,5,1,13,0.01
2013-8-26,78,70,65,72,66,61,97,88,72,30.18,29.91,5,1,13,1.68
2013-8-27,84,72,64,74,69,63,99,92,73,29.93,29.87,3,1,7,1.55
2013-8-28,83,77,67,75,72,66,98,83,74,29.93,29.84,4,2,9,0.00
2013-8-29,82,72,63,74,68,61,99,90,72,30.02,29.93,5,2,9,0.01
2013-8-30,86,72,60,75,66,59,99,84,52,30.01,29.77,5,1,10,0.01
2013-8-31,82,74,70,74,70,68,97,89,73,29.84,29.72,5,2,11,0.02
2013-9-1,82,72,65,74,67,-100,98,89,69,29.84,29.73,6,1,10,0.05
2013-9-2,84,72,66,74,68,60,98,88,68,29.78,29.65,5,2,12,0.09
2013-9-3,68,64,59,61,58,56,91,82,72,29.91,29.77,6,2,13,0.01
2013-9-4,78,67,53,61,57,52,97,72,45,29.98,29.91,7,2,16,0.12
2013-9-5,67,59,48,63,52,43,96,78,54,30.20,29.94,9,2,20,0.12
2013-9-6,70,56,44,54,47,42,94,74,46,30.27,30.09,5,1,8,0.00
2013-9-7,67,59,49,63,56,47,95,89,71,30.09,29.85,3,1,7,0.05
2013-9-8,65,60,46,63,51,-100,98,77,52,30.10,29.83,8,3,15,0.08
2013-9-9,74,59,43,61,52,42,98,78,53,30.15,29.96,9,3,15,0.01
2013-9-10,91,77,63,78,70,59,94,80,62,29.99,29.91,10,3,21,0.05
2013-9-11,94,84,73,77,73,67,92,72,52,30.03,29.88,6,2,13,0.01
2013-9-12,76,70,62,70,66,60,96,88,79,29.91,29.70,4,1,14,0.19
2013-9-13,62,55,51,60,53,49,97,94,88,29.98,29.71,7,3,13,0.18
2013-9-14,61,52,44,49,47,43,97,83,57,30.11,29.97,4,1,10,0.02
2013-9-15,67,52,41,56,46,-100,98,85,54,30.15,30.04,5,1,14,0.01
2013-9-16,55,51,44,53,49,43,98,93,79,30.35,30.05,5,2,12,0.21
2013-9-17,64,49,35,48,42,34,98,81,47,30.48,30.29,5,1,8,0.01
2013-9-18,51,44,42,47,43,41,98,94,86,30.29,30.11,3,1,4,0.01
2013-9-19,77,60,46,60,52,45,97,79,47,30.12,30.01,6,1,11,0.00
2013-9-20,81,66,52,65,59,51,98,79,52,30.01,29.79,13,4,19,0.00